Terminal Aerodrome Forecast
Issued by NWS Bismarck, ND

Home | Current Version | Previous Version | Text Only | Print | Product List | Glossary Off
Versions: 1 2 3 4 5 6 7 8 9 10 11 12 13 14 15 16 17 18 19 20 21 22 23

000
FTUS43 KBIS 071429 AAB
TAFBIS
TAF AMD
KBIS 071429Z 0714/0812 30020G28KT P6SM FEW020 OVC050
     FM072100 30021G31KT P6SM BKN015
     FM080200 31016KT P6SM OVC015=

USA.gov is the U.S. government's official web portal to all federal, state and local government web resources and services.